Time;durP1;ratioP1;P1;durP2;ratioP2;P2;SDS_P1;SDS_P2;PMS_P1;PMS_P2;Temp;Humidity;BMP_temperature;BMP_pressure;BME280_temperature;BME280_humidity;BME280_pressure;Samples;Min_cycle;Max_cycle;Signal;HPM_P1;HPM_P2
2021/05/25 00:02:07;;;;;;;10.77;1.95;;;;;;;23.93;43.75;99377.69;4475107;32;33240;-62
2021/05/25 00:04:35;;;;;;;9.90;1.80;;;;;;;23.92;43.81;99365.94;4468390;32;33772;-61
2021/05/25 00:07:02;;;;;;;9.40;1.95;;;;;;;23.92;43.85;99371.41;4468588;32;34714;-61
2021/05/25 00:09:30;;;;;;;10.07;2.47;;;;;;;23.93;43.70;99375.78;4474445;32;33862;-61
2021/05/25 00:12:17;;;;;;;10.18;2.62;;;;;;;23.94;43.51;99352.06;4479023;32;32650;-61
2021/05/25 00:14:45;;;;;;;16.05;2.00;;;;;;;23.93;43.64;99347.69;4484148;32;35279;-62
2021/05/25 00:17:12;;;;;;;9.02;2.12;;;;;;;23.93;43.83;99369.50;4484180;32;33648;-61
2021/05/25 00:19:40;;;;;;;8.10;2.15;;;;;;;23.92;43.75;99378.72;4468472;32;34955;-61
2021/05/25 00:22:08;;;;;;;9.55;1.98;;;;;;;23.92;43.81;99378.72;4468705;32;33503;-62
2021/05/25 00:24:36;;;;;;;10.95;1.70;;;;;;;23.93;43.82;99380.41;4468231;32;34131;-61
2021/05/25 00:27:06;;;;;;;8.55;2.10;;;;;;;23.92;43.87;99382.31;4468321;32;34925;-61
2021/05/25 00:29:34;;;;;;;11.60;1.92;;;;;;;23.91;43.78;99385.25;4468730;32;34074;-61
2021/05/25 00:32:02;;;;;;;7.53;1.98;;;;;;;23.91;43.83;99379.78;4480651;32;33375;-60
2021/05/25 00:34:29;;;;;;;11.18;2.40;;;;;;;23.90;43.92;99381.69;4479418;32;33472;-61
2021/05/25 00:36:57;;;;;;;7.22;2.03;;;;;;;23.91;43.85;99379.78;4474287;32;34906;-60
2021/05/25 00:39:25;;;;;;;8.13;2.15;;;;;;;23.91;43.89;99377.06;4468005;32;34849;-60
2021/05/25 00:41:53;;;;;;;8.50;1.65;;;;;;;23.91;43.79;99379.78;4483150;32;33255;-61
2021/05/25 00:44:20;;;;;;;5.80;1.70;;;;;;;23.92;43.61;99373.28;4483652;32;34578;-60
2021/05/25 00:46:48;;;;;;;12.20;2.17;;;;;;;23.92;43.59;99365.09;4483920;32;34555;-61
2021/05/25 00:49:15;;;;;;;6.40;1.70;;;;;;;23.91;43.58;99358.81;4483837;32;34939;-60
2021/05/25 00:51:43;;;;;;;6.15;1.52;;;;;;;23.91;43.50;99358.81;4483641;32;33471;-61
2021/05/25 00:54:11;;;;;;;6.37;2.65;;;;;;;23.92;43.41;99362.38;4470051;32;33792;-61
2021/05/25 00:56:39;;;;;;;8.20;2.10;;;;;;;23.92;43.51;99373.28;4483607;32;34006;-62
2021/05/25 00:59:06;;;;;;;7.72;1.70;;;;;;;23.92;43.32;99343.28;4482864;32;34868;-62
2021/05/25 01:01:34;;;;;;;5.82;1.80;;;;;;;23.91;43.51;99368.91;4482424;32;33319;-62
2021/05/25 01:04:02;;;;;;;6.07;1.70;;;;;;;23.93;43.33;99399.47;4484046;32;34669;-62
2021/05/25 01:06:30;;;;;;;5.75;1.42;;;;;;;23.91;43.58;99371.62;4469512;32;33855;-61
2021/05/25 01:09:00;;;;;;;8.35;1.70;;;;;;;23.92;43.44;99359.66;4483736;32;34936;-61
2021/05/25 01:11:28;;;;;;;;;;;;;;;23.93;43.31;99370.31;4484207;32;34621;-62
2021/05/25 01:13:57;;;;;;;7.50;1.60;;;;;;;24.02;43.22;99378.97;4483243;32;34042;-62
2021/05/25 01:16:29;;;;;;;8.25;1.90;;;;;;;23.95;43.30;99371.97;4483583;32;33873;-61
2021/05/25 01:18:56;;;;;;;3.72;1.58;;;;;;;23.93;43.47;99367.59;4483463;32;34468;-62
2021/05/25 01:21:25;;;;;;;8.20;1.85;;;;;;;23.90;43.46;99389.88;4483439;32;33552;-61
2021/05/25 01:23:53;;;;;;;5.70;1.50;;;;;;;23.92;43.38;99389.63;4482201;32;33481;-62
2021/05/25 01:26:22;;;;;;;5.65;1.40;;;;;;;23.90;43.34;99389.88;4483266;32;35001;-62
2021/05/25 01:28:50;;;;;;;5.32;1.40;;;;;;;23.90;43.56;99392.59;4483542;32;33327;-61
2021/05/25 01:31:18;;;;;;;5.70;2.15;;;;;;;23.89;43.58;99411.91;4482107;32;33185;-61
2021/05/25 01:33:45;;;;;;;5.03;1.67;;;;;;;23.88;43.49;99397.47;4482975;32;33780;-61
2021/05/25 01:36:14;;;;;;;7.78;1.62;;;;;;;23.88;43.52;99375.66;4483287;32;35018;-61
2021/05/25 01:38:52;;;;;;;10.47;1.83;;;;;;;23.88;43.59;99342.16;4482033;32;34008;-61
2021/05/25 01:41:20;;;;;;;7.37;1.50;;;;;;;23.90;43.57;99340.81;4483133;32;33641;-61
2021/05/25 01:43:58;;;;;;;8.00;1.40;;;;;;;23.89;43.73;99355.53;4483458;32;33899;-61
2021/05/25 01:46:26;;;;;;;5.47;1.48;;;;;;;23.89;43.77;99362.88;4482912;32;34197;-61
2021/05/25 01:48:54;;;;;;;6.12;1.37;;;;;;;23.87;43.77;99348.66;4483055;32;33975;-62
2021/05/25 01:51:21;;;;;;;8.52;1.83;;;;;;;23.86;43.76;99344.28;4482992;32;33594;-62
2021/05/25 01:53:49;;;;;;;7.35;1.80;;;;;;;23.86;43.78;99355.16;4483012;32;33874;-61
2021/05/25 01:56:17;;;;;;;6.05;1.42;;;;;;;23.85;43.83;99365.25;4483031;32;33865;-61
2021/05/25 01:58:44;;;;;;;8.23;2.00;;;;;;;23.86;43.77;99361.44;4483150;32;33913;-62
2021/05/25 02:01:12;;;;;;;4.68;1.52;;;;;;;23.86;43.77;99368.78;4482801;32;33644;-62
2021/05/25 02:03:40;;;;;;;5.87;1.30;;;;;;;23.86;43.77;99366.06;4483011;32;33827;-62
2021/05/25 02:06:08;;;;;;;4.60;1.37;;;;;;;23.85;43.74;99378.03;4482819;32;33786;-62
2021/05/25 02:08:36;;;;;;;9.00;1.70;;;;;;;23.85;43.76;99378.03;4482631;32;34767;-61
2021/05/25 02:11:04;;;;;;;5.25;1.67;;;;;;;23.85;43.76;99391.66;4484204;32;33605;-61
2021/05/25 02:13:35;;;;;;;5.45;1.50;;;;;;;23.84;43.74;99376.37;4484931;32;34004;-62
2021/05/25 02:16:11;;;;;;;5.55;1.40;;;;;;;23.84;43.72;99358.13;4484799;32;34869;-61
2021/05/25 02:18:42;;;;;;;5.78;1.50;;;;;;;23.84;43.75;99362.75;4484966;32;34622;-61
2021/05/25 02:21:11;;;;;;;5.82;2.05;;;;;;;23.83;43.73;99370.13;4484834;32;33635;-61
2021/05/25 02:23:39;;;;;;;6.65;1.80;;;;;;;23.83;43.73;99344.78;4484889;32;34546;-62
2021/05/25 02:26:07;;;;;;;5.53;1.40;;;;;;;23.83;43.73;99355.66;4484830;32;34800;-61
2021/05/25 02:28:34;;;;;;;8.95;1.92;;;;;;;23.84;43.63;99352.69;4484804;32;34605;-61
2021/05/25 02:31:02;;;;;;;8.63;1.55;;;;;;;23.84;43.73;99349.16;4484872;32;33210;-62
2021/05/25 02:33:30;;;;;;;8.05;1.98;;;;;;;23.83;43.71;99345.59;4484884;32;33854;-62
2021/05/25 02:35:58;;;;;;;6.10;1.67;;;;;;;23.83;43.73;99350.22;4484370;32;34773;-62
2021/05/25 02:38:27;;;;;;;9.63;1.65;;;;;;;23.83;43.70;99355.66;4484700;32;34098;-61
2021/05/25 02:40:55;;;;;;;6.35;1.50;;;;;;;23.82;43.73;99345.81;4484842;32;33635;-62
2021/05/25 02:43:24;;;;;;;7.22;1.55;;;;;;;23.83;43.79;99364.66;4483379;32;33779;-62
2021/05/25 02:45:52;;;;;;;9.07;1.67;;;;;;;23.83;43.79;99366.56;4484753;32;34724;-62
2021/05/25 02:48:20;;;;;;;6.68;1.35;;;;;;;23.83;43.76;99358.38;4484708;32;34110;-62
2021/05/25 02:50:47;;;;;;;7.18;1.73;;;;;;;23.82;43.75;99375.78;4484432;32;33027;-62
2021/05/25 02:53:15;;;;;;;6.43;1.67;;;;;;;23.81;43.73;99363.22;4484699;32;33790;-62
2021/05/25 02:55:43;;;;;;;5.95;1.67;;;;;;;23.80;43.81;99369.75;4484754;32;34471;-61
2021/05/25 02:58:11;;;;;;;7.68;2.33;;;;;;;23.80;43.78;99367.03;4484429;32;34253;-61
2021/05/25 03:00:41;;;;;;;6.30;1.45;;;;;;;23.80;43.69;99362.41;4484690;32;33659;-61
2021/05/25 03:03:09;;;;;;;8.32;1.55;;;;;;;23.80;43.75;99367.03;4484613;32;34719;-62
2021/05/25 03:05:36;;;;;;;7.00;1.80;;;;;;;23.81;43.73;99355.06;4484487;32;33769;-62
2021/05/25 03:08:05;;;;;;;6.40;1.65;;;;;;;23.81;43.75;99346.88;4484525;32;34111;-61
2021/05/25 03:10:34;;;;;;;4.80;1.35;;;;;;;23.79;43.73;99347.13;4483369;32;33486;-62
2021/05/25 03:13:03;;;;;;;4.65;1.33;;;;;;;23.79;43.74;99344.41;4484659;32;33783;-62
2021/05/25 03:15:33;;;;;;;5.05;1.40;;;;;;;23.81;43.67;99336.00;4484504;32;33486;-61
2021/05/25 03:18:00;;;;;;;7.37;1.95;;;;;;;23.80;43.72;99340.63;4483209;32;33939;-62
2021/05/25 03:20:28;;;;;;;6.78;1.50;;;;;;;23.81;43.72;99325.09;4484211;32;33281;-62
2021/05/25 03:22:56;;;;;;;15.55;2.28;;;;;;;23.80;43.73;99335.16;4484587;32;33777;-61
2021/05/25 03:25:24;;;;;;;6.20;1.42;;;;;;;23.79;43.76;99322.63;4484280;32;34592;-61
2021/05/25 03:27:52;;;;;;;6.68;1.65;;;;;;;23.79;43.85;99317.16;4484488;32;33980;-61
2021/05/25 03:30:22;;;;;;;5.60;1.60;;;;;;;23.79;43.95;99321.78;4484360;32;33544;-61
2021/05/25 03:32:50;;;;;;;5.70;1.45;;;;;;;23.78;43.86;99315.53;4484506;32;33708;-61
2021/05/25 03:35:36;;;;;;;8.07;1.58;;;;;;;23.79;43.69;99310.91;4484659;32;33997;-62
2021/05/25 03:38:04;;;;;;;7.10;1.52;;;;;;;23.79;43.73;99316.34;4484109;32;34983;-61
2021/05/25 03:40:31;;;;;;;8.20;1.60;;;;;;;23.77;43.71;99326.62;4484463;32;33462;-62
2021/05/25 03:42:59;;;;;;;8.38;1.55;;;;;;;23.77;43.74;99327.47;4484398;32;34093;-62
2021/05/25 03:45:27;;;;;;;5.15;1.40;;;;;;;23.77;43.72;99326.62;4484219;32;33937;-62
2021/05/25 03:47:54;;;;;;;5.20;1.48;;;;;;;23.77;43.71;99341.09;4484376;32;34037;-61
2021/05/25 03:50:22;;;;;;;10.57;1.62;;;;;;;23.75;43.68;99343.22;4484504;32;33583;-62
2021/05/25 03:52:52;;;;;;;8.80;2.00;;;;;;;23.75;43.63;99359.56;4484140;32;34469;-62
2021/05/25 04:00:48;;;;;;;10.27;1.25;;;;;;;23.77;43.78;99372.94;4478962;32;33422;-61
2021/05/25 04:03:16;;;;;;;6.35;1.27;;;;;;;23.75;43.80;99375.91;4476515;32;33706;-61
2021/05/25 04:05:44;;;;;;;9.10;2.28;;;;;;;23.75;43.78;99370.47;4482644;32;33984;-61
2021/05/25 04:08:11;;;;;;;9.18;1.90;;;;;;;23.75;43.79;99364.19;4477975;32;35038;-60
2021/05/25 04:10:39;;;;;;;7.40;1.60;;;;;;;23.77;43.91;99367.50;4474430;32;33495;-62
2021/05/25 04:13:07;;;;;;;4.12;1.23;;;;;;;23.77;43.87;99367.50;4484393;32;33669;-60
2021/05/25 04:15:35;;;;;;;10.80;2.22;;;;;;;23.75;43.84;99370.47;4483345;32;33252;-61
2021/05/25 04:18:02;;;;;;;8.32;1.92;;;;;;;23.77;43.96;99370.22;4483959;32;33962;-61
2021/05/25 04:20:31;;;;;;;7.78;1.73;;;;;;;23.77;43.88;99365.59;4484127;32;33227;-61
2021/05/25 04:22:59;;;;;;;14.73;2.83;;;;;;;23.77;43.84;99360.16;4482924;32;34919;-61
2021/05/25 04:25:27;;;;;;;17.48;2.70;;;;;;;23.79;43.78;99366.22;4483986;32;33870;-61
2021/05/25 04:27:54;;;;;;;11.98;2.20;;;;;;;23.81;43.53;99368.69;4483953;32;34031;-61
2021/05/25 04:30:22;;;;;;;21.05;2.62;;;;;;;23.75;43.29;99372.38;4483874;32;34373;-59
2021/05/25 04:32:50;;;;;;;12.50;2.10;;;;;;;23.74;43.46;99381.63;4482673;32;34464;-60
2021/05/25 04:35:18;;;;;;;12.77;2.28;;;;;;;23.71;43.54;99388.34;4484160;32;33542;-60
2021/05/25 04:37:45;;;;;;;16.50;2.97;;;;;;;23.70;43.69;99394.88;4483785;32;33980;-60
2021/05/25 04:40:13;;;;;;;16.02;2.62;;;;;;;23.71;43.58;99398.44;4483808;32;33578;-61
2021/05/25 04:42:41;;;;;;;9.90;2.60;;;;;;;23.70;43.68;99391.34;4484238;32;33967;-60
2021/05/25 04:45:09;;;;;;;15.00;2.78;;;;;;;23.69;43.68;99387.78;4484166;32;34659;-61
2021/05/25 04:47:37;;;;;;;16.48;3.15;;;;;;;23.69;43.65;99398.69;4483852;32;33828;-60
2021/05/25 04:50:06;;;;;;;17.35;2.58;;;;;;;23.69;43.60;99390.50;4483904;32;34936;-60
2021/05/25 04:52:33;;;;;;;13.60;2.87;;;;;;;23.68;43.59;99397.00;4483089;32;34884;-60
2021/05/25 04:55:10;;;;;;;17.40;2.90;;;;;;;23.68;43.59;99406.00;4476964;32;33810;-60
2021/05/25 04:57:38;;;;;;;10.45;2.28;;;;;;;23.70;43.54;99407.69;4482074;31;33785;-60
2021/05/25 05:00:07;;;;;;;13.23;2.15;;;;;;;23.68;43.51;99400.53;4483190;32;33628;-60
2021/05/25 05:02:35;;;;;;;10.75;2.62;;;;;;;23.68;43.50;99400.53;4476794;32;33782;-59
2021/05/25 05:05:04;;;;;;;14.82;2.53;;;;;;;23.68;43.50;99397.00;4468011;32;33785;-60
2021/05/25 05:07:32;;;;;;;14.63;2.35;;;;;;;23.67;43.50;99398.91;4467650;32;33984;-60
2021/05/25 05:09:59;;;;;;;13.00;3.17;;;;;;;23.67;43.45;99398.91;4479452;32;34158;-60
2021/05/25 05:12:27;;;;;;;9.48;1.95;;;;;;;23.67;43.44;99407.06;4483496;32;35285;-59
2021/05/25 05:14:55;;;;;;;6.95;2.00;;;;;;;23.68;43.39;99407.88;4483127;32;33601;-60
2021/05/25 05:17:27;;;;;;;10.48;2.08;;;;;;;23.67;43.37;99417.97;4480501;32;32755;-60
2021/05/25 05:19:55;;;;;;;8.98;2.10;;;;;;;23.67;43.35;99423.41;4481365;32;33700;-59
2021/05/25 05:22:23;;;;;;;9.18;2.28;;;;;;;23.67;43.34;99412.50;4481232;32;34823;-60
2021/05/25 05:24:51;;;;;;;11.88;2.47;;;;;;;23.67;43.31;99412.50;4481899;32;34734;-60
2021/05/25 05:27:19;;;;;;;9.10;2.08;;;;;;;23.67;43.29;99417.97;4482808;32;33800;-59
2021/05/25 05:29:46;;;;;;;10.77;2.45;;;;;;;23.68;43.29;99424.22;4482799;32;33588;-60
2021/05/25 05:32:14;;;;;;;12.98;2.40;;;;;;;23.68;43.26;99430.50;4483363;32;34946;-60
2021/05/25 05:34:42;;;;;;;9.90;1.70;;;;;;;23.67;43.27;99437.03;4483386;32;33890;-59
2021/05/25 05:37:09;;;;;;;11.68;2.50;;;;;;;23.67;43.26;99434.31;4483126;32;34120;-59
2021/05/25 05:39:37;;;;;;;9.30;2.12;;;;;;;23.68;43.25;99435.13;4483201;32;34269;-59
2021/05/25 05:42:05;;;;;;;6.32;1.87;;;;;;;23.68;43.23;99432.41;4483317;32;33341;-59
2021/05/25 05:44:33;;;;;;;8.88;1.90;;;;;;;23.67;43.22;99434.31;4483895;32;34641;-59
2021/05/25 05:47:00;;;;;;;8.93;2.05;;;;;;;23.67;43.19;99415.25;4470244;32;34763;-59
2021/05/25 05:49:28;;;;;;;6.22;1.98;;;;;;;23.67;43.16;99412.50;4469581;32;31781;-59
2021/05/25 05:51:55;;;;;;;10.95;2.53;;;;;;;23.67;43.16;99412.50;4469402;32;33493;-57
2021/05/25 05:54:23;;;;;;;7.93;1.85;;;;;;;23.67;43.16;99412.50;4469688;32;33901;-58
2021/05/25 05:56:51;;;;;;;8.20;1.80;;;;;;;23.67;43.15;99411.69;4469410;32;33910;-58
2021/05/25 05:59:18;;;;;;;8.82;2.10;;;;;;;23.67;43.15;99417.13;4469429;32;33849;-59
2021/05/25 06:01:46;;;;;;;9.07;2.45;;;;;;;23.67;43.14;99433.47;4471874;32;33746;-60
2021/05/25 06:04:14;;;;;;;8.73;1.98;;;;;;;23.66;43.14;99440.00;4484888;32;34571;-58
2021/05/25 06:06:47;;;;;;;7.55;1.80;;;;;;;23.66;43.14;99454.44;4481961;32;35127;-60
2021/05/25 06:09:15;;;;;;;7.28;1.80;;;;;;;23.67;43.11;99461.53;4476541;32;34172;-60
2021/05/25 06:11:42;;;;;;;7.65;1.77;;;;;;;23.65;43.12;99454.69;4483715;32;33867;-59
2021/05/25 06:14:10;;;;;;;6.43;2.10;;;;;;;23.65;43.12;99465.59;4485302;32;33781;-60
2021/05/25 06:16:38;;;;;;;8.25;2.10;;;;;;;23.66;43.08;99468.06;4478163;32;34114;-60
2021/05/25 06:19:05;;;;;;;6.90;2.05;;;;;;;23.65;43.07;99462.88;4472632;32;34310;-60
2021/05/25 06:21:33;;;;;;;9.68;2.10;;;;;;;23.65;43.07;99469.13;4477406;32;33870;-60
2021/05/25 06:24:01;;;;;;;6.07;1.80;;;;;;;23.66;43.06;99476.22;4477978;32;33640;-60
2021/05/25 06:26:28;;;;;;;7.53;1.62;;;;;;;23.65;43.06;99469.13;4482436;32;33971;-60
2021/05/25 06:28:56;;;;;;;7.25;2.08;;;;;;;23.65;43.07;99485.47;4472545;32;33565;-60
2021/05/25 06:31:24;;;;;;;9.63;1.87;;;;;;;23.65;43.05;99481.94;4469104;32;33751;-60
2021/05/25 06:33:51;;;;;;;6.03;1.85;;;;;;;23.65;43.04;99487.38;4468998;32;33835;-60
2021/05/25 06:36:19;;;;;;;5.12;1.75;;;;;;;23.65;43.03;99484.66;4469178;32;34085;-60
2021/05/25 06:38:46;;;;;;;6.10;1.70;;;;;;;23.66;43.01;99491.75;4483246;32;34310;-60
2021/05/25 06:41:14;;;;;;;5.05;1.70;;;;;;;23.65;43.00;99482.75;4483757;32;33876;-60
2021/05/25 06:43:41;;;;;;;4.57;1.50;;;;;;;23.65;43.00;99487.38;4484006;32;33805;-61
2021/05/25 06:46:09;;;;;;;4.35;1.50;;;;;;;23.65;42.99;99484.66;4484664;32;33788;-60
2021/05/25 06:48:37;;;;;;;8.60;1.98;;;;;;;23.65;42.99;99490.94;4484385;32;33379;-61
2021/05/25 06:51:07;;;;;;;4.78;1.80;;;;;;;23.65;42.97;99487.38;4484379;32;33856;-61
2021/05/25 06:53:35;;;;;;;7.20;1.70;;;;;;;23.65;42.96;99484.66;4485006;32;33960;-61
2021/05/25 06:56:03;;;;;;;7.75;1.85;;;;;;;23.64;42.95;99489.28;4483975;32;34057;-60
2021/05/25 06:58:32;;;;;;;6.82;1.70;;;;;;;23.65;42.94;99490.09;4484518;32;33553;-61
2021/05/25 07:01:00;;;;;;;5.20;1.50;;;;;;;23.65;42.93;99492.81;4484281;32;34671;-60
2021/05/25 07:03:27;;;;;;;5.10;1.60;;;;;;;23.64;42.92;99483.81;4484481;32;34965;-61
2021/05/25 07:05:55;;;;;;;7.07;1.60;;;;;;;23.64;42.91;99497.44;4484268;32;34909;-61
2021/05/25 07:08:23;;;;;;;5.45;1.73;;;;;;;23.64;42.88;99497.44;4484457;32;33492;-61
2021/05/25 07:10:55;;;;;;;6.03;1.70;;;;;;;23.65;42.87;99501.81;4484531;32;33659;-61
2021/05/25 07:13:23;;;;;;;4.53;1.62;;;;;;;23.65;42.86;99507.25;4484603;32;33875;-61
2021/05/25 07:15:51;;;;;;;6.93;1.58;;;;;;;23.65;42.86;99501.81;4484087;32;34777;-61
2021/05/25 07:18:18;;;;;;;6.15;1.83;;;;;;;23.65;42.86;99512.72;4484428;32;34293;-61
2021/05/25 07:20:49;;;;;;;4.68;1.55;;;;;;;23.66;42.84;99513.53;4484577;32;34350;-60
2021/05/25 07:23:16;;;;;;;5.30;1.83;;;;;;;23.66;42.83;99519.00;4484339;32;33805;-61
2021/05/25 07:25:44;;;;;;;4.03;1.40;;;;;;;23.67;42.80;99520.66;4483538;32;34104;-61
2021/05/25 07:28:12;;;;;;;4.47;1.83;;;;;;;23.66;42.81;99524.44;4484358;32;33534;-61
2021/05/25 07:30:40;;;;;;;6.10;1.52;;;;;;;23.65;42.80;99528.22;4483949;32;33735;-60
2021/05/25 07:33:08;;;;;;;5.40;1.50;;;;;;;23.65;42.81;99530.97;4483583;32;33722;-60
2021/05/25 07:35:36;;;;;;;6.55;1.75;;;;;;;23.66;42.82;99546.22;4484355;32;34778;-61
2021/05/25 07:38:03;;;;;;;3.67;1.50;;;;;;;23.64;42.79;99541.03;4484057;32;33486;-61
2021/05/25 07:40:31;;;;;;;4.85;1.80;;;;;;;23.64;42.80;99549.19;4483880;32;33875;-61
2021/05/25 07:43:00;;;;;;;3.95;1.60;;;;;;;23.64;42.79;99546.47;4484628;32;33862;-61
2021/05/25 07:45:27;;;;;;;4.03;1.52;;;;;;;23.64;42.78;99556.50;4484246;32;33740;-61
2021/05/25 07:47:55;;;;;;;2.53;1.20;;;;;;;23.63;42.78;99555.66;4484360;32;33380;-60
2021/05/25 07:50:23;;;;;;;4.65;1.75;;;;;;;23.64;42.78;99559.22;4483693;32;33775;-61
2021/05/25 07:52:52;;;;;;;7.28;1.60;;;;;;;23.63;42.78;99558.37;4484224;32;33672;-61
2021/05/25 07:55:27;;;;;;;5.00;1.58;;;;;;;23.62;42.80;99562.16;4484266;32;33706;-61
2021/05/25 07:57:55;;;;;;;6.90;1.90;;;;;;;23.64;42.79;99567.41;4484167;32;33615;-61
2021/05/25 08:00:23;;;;;;;3.97;1.55;;;;;;;23.63;42.76;99560.28;4484024;32;34600;-61
2021/05/25 08:02:51;;;;;;;5.22;1.70;;;;;;;23.62;42.76;99573.06;4483879;32;33631;-61
2021/05/25 08:05:19;;;;;;;4.80;1.60;;;;;;;23.62;42.79;99573.06;4482538;32;34786;-61
2021/05/25 08:07:46;;;;;;;4.87;1.52;;;;;;;23.63;42.78;99579.34;4483664;32;33483;-61
2021/05/25 08:10:14;;;;;;;4.85;1.50;;;;;;;23.62;42.75;99583.13;4484117;32;33853;-60
2021/05/25 08:12:42;;;;;;;5.50;1.87;;;;;;;23.61;42.76;99586.94;4483971;32;33712;-61
2021/05/25 08:15:12;;;;;;;4.95;1.70;;;;;;;23.61;42.74;99590.47;4484215;32;34897;-60
2021/05/25 08:20:32;;;;;;;6.85;1.58;;;;;;;23.62;42.75;99602.19;4484034;32;33572;-61
2021/05/25 08:23:20;;;;;;;2.42;1.30;;;;;;;23.60;42.75;99602.44;4483603;32;34104;-61
2021/05/25 08:25:47;;;;;;;2.85;1.40;;;;;;;23.61;42.74;99609.53;4484043;32;34145;-61
2021/05/25 08:28:15;;;;;;;4.43;1.62;;;;;;;23.60;42.76;99616.06;4484051;32;33610;-61
2021/05/25 08:30:43;;;;;;;4.50;1.30;;;;;;;23.59;42.76;99628.00;4483810;32;33641;-61
2021/05/25 08:33:13;;;;;;;4.30;1.48;;;;;;;23.59;42.77;99633.44;4483759;32;33814;-60
2021/05/25 08:35:43;;;;;;;3.30;1.52;;;;;;;23.60;42.74;99620.69;4484021;32;34398;-61
2021/05/25 08:38:13;;;;;;;3.90;1.45;;;;;;;23.60;42.75;99629.69;4483668;32;34282;-60
2021/05/25 08:40:41;;;;;;;4.78;1.52;;;;;;;23.59;42.76;99630.72;4483425;32;33799;-60
2021/05/25 08:43:09;;;;;;;3.17;1.67;;;;;;;23.60;42.74;99634.28;4484077;32;34435;-60
2021/05/25 08:45:36;;;;;;;4.87;1.35;;;;;;;23.59;42.75;99638.88;4483950;32;34391;-61
2021/05/25 08:48:04;;;;;;;4.32;1.65;;;;;;;23.59;42.74;99629.88;4483919;32;33543;-61
2021/05/25 08:50:55;;;;;;;5.72;1.50;;;;;;;23.59;42.73;99636.16;4483597;32;33534;-60
2021/05/25 08:53:23;;;;;;;4.05;1.40;;;;;;;23.58;42.74;99642.69;4483854;32;33595;-61
2021/05/25 08:55:51;;;;;;;6.28;1.50;;;;;;;23.58;42.73;99639.12;4483500;32;33876;-60
2021/05/25 08:58:19;;;;;;;3.55;1.40;;;;;;;23.58;42.73;99642.69;4484175;32;34286;-61
2021/05/25 09:00:47;;;;;;;4.97;1.80;;;;;;;23.58;42.73;99641.84;4483890;32;33854;-61
2021/05/25 09:03:16;;;;;;;3.80;1.85;;;;;;;23.59;42.71;99646.22;4483560;32;33985;-61
2021/05/25 09:05:54;;;;;;;3.65;1.40;;;;;;;23.59;42.72;99651.69;4483092;32;34727;-61
2021/05/25 09:08:21;;;;;;;2.67;1.42;;;;;;;23.60;42.72;99656.09;4483674;32;34287;-60
2021/05/25 09:10:50;;;;;;;4.45;1.50;;;;;;;23.59;42.68;99663.41;4483521;32;33777;-61
2021/05/25 09:13:24;;;;;;;4.78;1.67;;;;;;;23.58;42.68;99661.75;4483703;32;34480;-61
2021/05/25 09:15:57;;;;;;;5.30;1.27;;;;;;;23.58;42.72;99663.63;4481924;32;34120;-61
2021/05/25 09:18:29;;;;;;;4.12;1.42;;;;;;;23.57;42.70;99665.53;4483190;32;34392;-60
2021/05/25 09:21:04;;;;;;;3.55;1.48;;;;;;;23.58;42.67;99663.63;4483575;32;35317;-61
2021/05/25 09:23:34;;;;;;;4.93;1.67;;;;;;;23.58;42.68;99669.91;4483502;32;34598;-61
2021/05/25 09:26:14;;;;;;;2.45;1.40;;;;;;;23.58;42.69;99671.81;4483319;32;33942;-61
2021/05/25 09:29:03;;;;;;;3.35;1.15;;;;;;;23.56;42.70;99661.16;4467943;32;34258;-60
2021/05/25 09:31:40;;;;;;;2.95;1.50;;;;;;;23.60;42.65;99661.53;4467637;32;33880;-61
2021/05/25 09:34:15;;;;;;;3.20;1.40;;;;;;;23.57;42.67;99656.53;4467396;32;33905;-61
2021/05/25 09:37:03;;;;;;;3.28;1.35;;;;;;;23.56;42.70;99660.31;4479711;32;34732;-61
2021/05/25 09:39:40;;;;;;;5.65;1.77;;;;;;;23.58;42.67;99658.19;4483497;32;33433;-60
2021/05/25 09:42:09;;;;;;;3.75;1.25;;;;;;;23.55;42.70;99664.09;4483223;32;34430;-61
2021/05/25 09:44:36;;;;;;;4.00;1.10;;;;;;;23.56;42.69;99663.06;4483264;32;33787;-60
2021/05/25 09:47:05;;;;;;;3.62;1.45;;;;;;;23.55;42.68;99664.94;4482926;32;34110;-61
2021/05/25 09:49:33;;;;;;;2.78;1.10;;;;;;;23.56;42.67;99666.59;4482937;32;33338;-60
2021/05/25 09:52:06;;;;;;;2.37;1.33;;;;;;;23.56;42.68;99669.31;4483115;32;35193;-60
2021/05/25 09:54:34;;;;;;;3.17;1.15;;;;;;;23.55;42.68;99673.13;4483335;32;33894;-60
2021/05/25 09:57:04;;;;;;;2.90;1.37;;;;;;;23.56;42.66;99672.06;4482485;32;34873;-61
2021/05/25 09:59:33;;;;;;;3.70;1.33;;;;;;;23.55;42.67;99684.00;4483105;32;33580;-61
2021/05/25 10:02:20;;;;;;;2.67;1.27;;;;;;;23.56;42.65;99682.13;4483070;32;34800;-61
2021/05/25 10:05:04;;;;;;;2.95;1.00;;;;;;;23.58;42.62;99697.16;4483004;32;33832;-60
2021/05/25 10:07:32;;;;;;;3.05;1.20;;;;;;;23.56;42.64;99702.00;4482385;32;34085;-61
2021/05/25 10:10:04;;;;;;;3.87;1.35;;;;;;;23.54;42.67;99706.84;4481481;32;33117;-60
2021/05/25 10:12:32;;;;;;;3.17;1.23;;;;;;;23.54;42.65;99695.94;4482688;32;34638;-61
2021/05/25 10:15:00;;;;;;;3.20;1.30;;;;;;;23.54;42.66;99704.13;4482583;32;34553;-61
2021/05/25 10:18:07;;;;;;;3.10;1.27;;;;;;;23.54;42.66;99704.13;4482133;32;34927;-61
2021/05/25 10:20:25;;;;;;;2.72;1.20;;;;;;;23.54;42.66;99697.84;4482462;32;34297;-61
2021/05/25 10:22:53;;;;;;;3.53;1.23;;;;;;;23.54;42.64;99698.66;4482865;32;33590;-61
2021/05/25 10:25:21;;;;;;;2.62;1.25;;;;;;;23.53;42.63;99694.28;4482487;32;34531;-61
2021/05/25 10:27:48;;;;;;;2.12;1.02;;;;;;;23.53;42.67;99702.47;4482776;32;33862;-60
2021/05/25 10:30:43;;;;;;;3.47;1.40;;;;;;;23.54;42.66;99704.13;4482342;32;34360;-60
2021/05/25 10:33:11;;;;;;;1.85;1.30;;;;;;;23.56;42.62;99699.28;4482811;32;34897;-61
2021/05/25 10:35:48;;;;;;;1.90;1.00;;;;;;;23.54;42.64;99692.38;4484890;32;34785;-60
2021/05/25 10:38:16;;;;;;;2.12;1.12;;;;;;;23.55;42.64;99689.47;4484449;32;33781;-61
2021/05/25 10:40:49;;;;;;;2.28;1.08;;;;;;;23.54;42.65;99686.94;4483545;32;33561;-61
2021/05/25 10:43:32;;;;;;;3.35;1.30;;;;;;;23.53;42.65;99696.19;4484592;32;34539;-61
2021/05/25 10:46:12;;;;;;;3.10;1.30;;;;;;;23.56;42.62;99698.47;4484134;32;33828;-61
2021/05/25 10:49:15;;;;;;;3.50;1.20;;;;;;;23.55;42.61;99691.31;4484605;32;34042;-61
2021/05/25 10:51:49;;;;;;;3.10;1.40;;;;;;;23.56;42.60;99695.72;4471735;32;33223;-61
2021/05/25 10:54:45;;;;;;;2.95;1.20;;;;;;;23.52;42.67;99705.41;4468998;32;34767;-61
2021/05/25 10:57:36;;;;;;;3.67;1.33;;;;;;;23.55;42.62;99715.84;4477051;31;33807;-60
2021/05/25 11:00:07;;;;;;;4.68;1.58;;;;;;;23.54;42.66;99715.00;4476093;32;34118;-60
2021/05/25 11:02:55;;;;;;;2.08;0.98;;;;;;;23.51;42.70;99712.75;4484625;32;33599;-59
2021/05/25 11:05:34;;;;;;;1.58;1.00;;;;;;;23.53;42.66;99715.25;4484698;32;33658;-60
2021/05/25 11:08:08;;;;;;;3.00;1.17;;;;;;;23.53;42.67;99721.53;4484684;32;34669;-59
2021/05/25 11:10:36;;;;;;;2.95;1.23;;;;;;;23.52;42.66;99710.87;4483990;32;33741;-60
2021/05/25 11:16:17;;;;;;;2.42;1.08;;;;;;;23.54;42.62;99716.91;4468863;32;33817;-60
2021/05/25 11:18:57;;;;;;;2.12;0.88;;;;;;;23.55;42.60;99724.00;4478758;32;33681;-59
2021/05/25 11:21:43;;;;;;;3.90;1.40;;;;;;;23.51;42.67;99731.81;4484638;32;35030;-60
2021/05/25 11:24:51;;;;;;;2.72;1.33;;;;;;;23.53;42.61;99737.88;4484508;32;33684;-60
2021/05/25 11:27:30;;;;;;;3.53;1.20;;;;;;;23.54;42.61;99744.97;4484604;32;34458;-59
2021/05/25 11:30:05;;;;;;;4.12;1.25;;;;;;;23.52;42.62;99733.47;4484373;32;33949;-60
2021/05/25 11:32:39;;;;;;;2.60;1.30;;;;;;;23.50;42.64;99729.31;4484373;32;34019;-60
2021/05/25 11:35:12;;;;;;;3.62;1.35;;;;;;;23.52;42.63;99725.31;4484408;32;34697;-60
2021/05/25 11:37:50;;;;;;;2.37;1.08;;;;;;;23.52;42.64;99713.59;4484235;32;33895;-60
2021/05/25 11:40:23;;;;;;;4.25;1.15;;;;;;;23.50;42.65;99724.72;4484640;32;35066;-60
2021/05/25 11:42:50;;;;;;;2.12;1.05;;;;;;;23.51;42.61;99712.75;4483997;32;34060;-60
2021/05/25 11:45:20;;;;;;;2.85;1.25;;;;;;;23.52;42.60;99719.87;4484169;32;34268;-61
2021/05/25 11:47:55;;;;;;;2.30;1.05;;;;;;;23.52;42.61;99728.03;4468670;32;33485;-62
2021/05/25 11:50:23;;;;;;;6.22;1.40;;;;;;;23.48;42.71;99726.81;4467391;32;33316;-61
2021/05/25 11:53:01;;;;;;;7.65;1.50;;;;;;;23.48;42.79;99734.16;4468620;32;34822;-61
2021/05/25 11:55:29;;;;;;;7.40;1.60;;;;;;;23.45;42.81;99735.44;4468722;32;33070;-61
2021/05/25 11:57:57;;;;;;;8.15;1.30;;;;;;;23.41;42.84;99740.53;4468278;32;34015;-60